createdAt,value
2023-01-23T00:00:41.265Z,11.57
2023-01-23T00:03:08.813Z,11.93
2023-01-23T00:05:35.933Z,12.27
2023-01-23T00:08:03.061Z,12.07
2023-01-23T00:10:30.202Z,10.90
2023-01-23T00:12:57.736Z,12.27
2023-01-23T00:15:24.854Z,11.80
2023-01-23T00:17:52.254Z,11.77
2023-01-23T00:20:20.575Z,12.30
2023-01-23T00:22:47.867Z,12.47
2023-01-23T00:25:14.978Z,12.00
2023-01-23T00:27:42.197Z,12.40
2023-01-23T00:30:09.646Z,12.03
2023-01-23T00:32:36.803Z,11.67
2023-01-23T00:35:04.068Z,11.77
2023-01-23T00:37:31.191Z,11.23
2023-01-23T00:39:58.305Z,11.37
2023-01-23T00:42:25.478Z,11.83
2023-01-23T00:44:52.649Z,12.43
2023-01-23T00:47:19.778Z,11.70
2023-01-23T00:49:46.927Z,11.73
2023-01-23T00:52:14.056Z,12.00
2023-01-23T00:54:41.557Z,11.97
2023-01-23T00:57:08.743Z,11.87
2023-01-23T00:59:35.873Z,11.77
2023-01-23T01:02:03.261Z,11.83
2023-01-23T01:04:30.455Z,13.00
2023-01-23T01:06:57.582Z,12.30
2023-01-23T01:09:24.956Z,12.07
2023-01-23T01:11:53.188Z,11.67
2023-01-23T01:14:20.379Z,11.50
2023-01-23T01:16:47.606Z,12.67
2023-01-23T01:19:15.323Z,13.00
2023-01-23T01:21:42.554Z,12.87
2023-01-23T01:24:10.250Z,12.63
2023-01-23T01:26:37.450Z,13.37
2023-01-23T01:29:04.706Z,12.20
2023-01-23T01:31:31.960Z,11.90
2023-01-23T01:33:59.138Z,12.33
2023-01-23T01:36:27.099Z,12.33
2023-01-23T01:38:54.286Z,12.37
2023-01-23T01:41:21.488Z,12.63
2023-01-23T01:43:48.627Z,11.80
2023-01-23T01:46:22.132Z,11.90
2023-01-23T01:49:08.086Z,11.30
2023-01-23T01:52:07.672Z,11.77
2023-01-23T01:54:37.929Z,12.00
2023-01-23T01:57:05.039Z,13.30
2023-01-23T01:59:34.184Z,12.30
2023-01-23T02:02:05.308Z,11.67
2023-01-23T02:04:37.437Z,11.20
2023-01-23T02:07:08.119Z,11.17
2023-01-23T02:09:35.327Z,11.80
2023-01-23T02:12:02.816Z,11.17
2023-01-23T02:14:30.046Z,10.93
2023-01-23T02:17:01.104Z,11.20
2023-01-23T02:19:28.257Z,11.63
2023-01-23T02:22:02.269Z,10.67
2023-01-23T02:24:37.057Z,11.37
2023-01-23T02:27:04.221Z,10.90
2023-01-23T02:29:44.963Z,10.53
2023-01-23T02:32:12.407Z,9.70
2023-01-23T02:34:39.642Z,10.33
2023-01-23T02:37:07.284Z,10.20
2023-01-23T02:39:34.537Z,9.53
2023-01-23T02:42:02.329Z,9.90
2023-01-23T02:44:33.972Z,9.67
2023-01-23T02:47:11.893Z,9.37
2023-01-23T02:49:40.358Z,10.27
2023-01-23T02:52:07.782Z,9.77
2023-01-23T02:54:34.925Z,9.50
2023-01-23T02:57:02.137Z,9.10
2023-01-23T02:59:47.909Z,9.00
2023-01-23T03:02:15.785Z,8.37
2023-01-23T03:04:42.942Z,8.83
2023-01-23T03:07:10.122Z,8.63
2023-01-23T03:09:37.432Z,8.10
2023-01-23T03:12:04.599Z,8.23
2023-01-23T03:14:32.425Z,8.10
2023-01-23T03:16:59.627Z,8.60
2023-01-23T03:19:27.125Z,8.43
2023-01-23T03:21:54.863Z,8.20
2023-01-23T03:24:22.095Z,8.33
2023-01-23T03:26:49.788Z,8.43
2023-01-23T03:29:40.326Z,8.80
2023-01-23T03:32:08.445Z,8.40
2023-01-23T03:34:35.940Z,7.80
2023-01-23T03:37:03.503Z,7.83
2023-01-23T03:39:49.633Z,7.93
2023-01-23T03:42:17.043Z,8.20
2023-01-23T03:44:44.233Z,8.10
2023-01-23T03:47:11.423Z,7.27
2023-01-23T03:49:38.623Z,7.80
2023-01-23T03:52:05.883Z,7.67
2023-01-23T03:54:33.066Z,7.40
2023-01-23T03:57:00.204Z,8.10
2023-01-23T03:59:27.338Z,7.37
2023-01-23T04:01:54.537Z,7.30
2023-01-23T04:04:21.750Z,7.57
2023-01-23T04:06:48.880Z,7.57
2023-01-23T04:09:16.029Z,7.13
2023-01-23T04:11:43.155Z,7.03
2023-01-23T04:14:10.347Z,7.77
2023-01-23T04:16:37.546Z,8.00
2023-01-23T04:19:04.764Z,7.90
2023-01-23T04:21:31.911Z,7.37
2023-01-23T04:23:59.050Z,7.57
2023-01-23T04:26:26.247Z,7.80
2023-01-23T04:28:53.374Z,7.60
2023-01-23T04:31:20.606Z,7.53
2023-01-23T04:33:47.819Z,7.23
2023-01-23T04:36:15.143Z,7.33
2023-01-23T04:38:42.289Z,7.33
2023-01-23T04:41:11.176Z,7.30
2023-01-23T04:43:38.377Z,8.03
2023-01-23T04:46:05.635Z,6.87
2023-01-23T04:48:32.782Z,7.70
2023-01-23T04:50:59.935Z,7.73
2023-01-23T04:53:27.150Z,7.73
2023-01-23T04:55:54.396Z,8.17
2023-01-23T04:58:21.571Z,7.90
2023-01-23T05:00:48.740Z,7.53
2023-01-23T05:03:16.275Z,7.33
2023-01-23T05:05:44.323Z,7.63
2023-01-23T05:08:12.455Z,7.63
2023-01-23T05:10:39.964Z,7.57
2023-01-23T05:13:07.157Z,7.90
2023-01-23T05:15:34.347Z,7.87
2023-01-23T05:18:01.494Z,7.93
2023-01-23T05:20:28.703Z,8.10
2023-01-23T05:22:57.641Z,8.30
2023-01-23T05:25:27.466Z,7.90
2023-01-23T05:27:54.664Z,7.57
2023-01-23T05:30:22.642Z,8.80
2023-01-23T05:32:49.945Z,7.87
2023-01-23T05:35:17.502Z,7.87
2023-01-23T05:37:44.715Z,8.10
2023-01-23T05:40:12.278Z,8.27
2023-01-23T05:42:39.394Z,8.30
2023-01-23T05:45:06.867Z,8.10
2023-01-23T05:47:34.121Z,8.67
2023-01-23T05:50:01.326Z,8.30
2023-01-23T05:52:28.565Z,8.23
2023-01-23T05:54:55.839Z,8.50
2023-01-23T05:57:23.089Z,8.10
2023-01-23T05:59:50.239Z,8.87
2023-01-23T06:02:17.764Z,9.43
2023-01-23T06:04:47.182Z,8.50
2023-01-23T06:07:14.941Z,9.40
2023-01-23T06:09:42.147Z,9.10
2023-01-23T06:12:09.805Z,9.67
2023-01-23T06:14:37.045Z,9.50
2023-01-23T06:17:04.500Z,9.03
2023-01-23T06:19:31.762Z,9.90
2023-01-23T06:21:58.920Z,10.13
2023-01-23T06:24:26.097Z,10.40
2023-01-23T06:26:53.306Z,9.63
2023-01-23T06:29:20.479Z,10.03
2023-01-23T06:31:47.771Z,9.60
2023-01-23T06:34:15.650Z,10.03
2023-01-23T06:36:43.065Z,9.83
2023-01-23T06:39:13.263Z,9.80
2023-01-23T06:41:40.401Z,9.43
2023-01-23T06:44:07.839Z,8.83
2023-01-23T06:46:35.219Z,9.80
2023-01-23T06:49:05.834Z,10.07
2023-01-23T06:51:33.729Z,10.03
2023-01-23T06:54:00.885Z,9.63
2023-01-23T06:56:28.398Z,11.10
2023-01-23T06:58:55.612Z,10.70
2023-01-23T07:01:22.862Z,10.17
2023-01-23T07:03:50.083Z,10.27
2023-01-23T07:06:17.271Z,9.83
2023-01-23T07:08:44.559Z,11.20
2023-01-23T07:11:12.013Z,10.73
2023-01-23T07:13:39.176Z,10.53
2023-01-23T07:16:06.539Z,10.57
2023-01-23T07:18:33.735Z,11.00
2023-01-23T07:21:01.057Z,10.97
2023-01-23T07:23:28.331Z,10.67
2023-01-23T07:26:09.434Z,10.67
2023-01-23T07:28:37.378Z,11.20
2023-01-23T07:31:05.166Z,10.87
2023-01-23T07:33:32.778Z,10.17
2023-01-23T07:36:00.117Z,9.23
2023-01-23T07:38:28.046Z,10.03
2023-01-23T07:40:58.573Z,10.77
2023-01-23T07:43:25.863Z,10.30
2023-01-23T07:45:53.031Z,9.47
2023-01-23T07:48:20.243Z,10.20
2023-01-23T07:50:47.357Z,10.37
2023-01-23T07:53:14.501Z,10.20
2023-01-23T07:55:41.633Z,10.10
2023-01-23T07:58:08.835Z,10.43
2023-01-23T08:00:36.038Z,10.60
2023-01-23T08:03:03.220Z,11.00
2023-01-23T08:05:30.400Z,10.60
2023-01-23T08:08:12.102Z,11.33
2023-01-23T08:10:40.632Z,10.53
2023-01-23T08:13:07.787Z,10.37
2023-01-23T08:15:34.898Z,10.70
2023-01-23T08:18:02.059Z,10.67
2023-01-23T08:20:29.340Z,10.67
2023-01-23T08:22:57.464Z,11.30
2023-01-23T08:25:24.588Z,10.63
2023-01-23T08:27:51.707Z,10.60
2023-01-23T08:30:19.206Z,10.93
2023-01-23T08:32:47.119Z,10.07
2023-01-23T08:35:14.352Z,10.90
2023-01-23T08:37:42.314Z,10.57
2023-01-23T08:40:09.664Z,10.07
2023-01-23T08:42:36.888Z,10.93
2023-01-23T08:45:04.689Z,10.47
2023-01-23T08:47:36.686Z,9.67
2023-01-23T08:50:04.600Z,9.73
2023-01-23T08:52:32.100Z,10.33
2023-01-23T08:54:59.250Z,8.30
2023-01-23T08:57:26.598Z,9.77
2023-01-23T08:59:53.745Z,9.70
2023-01-23T09:02:22.166Z,8.23
2023-01-23T09:04:50.004Z,10.00
2023-01-23T09:07:17.156Z,8.87
2023-01-23T09:09:44.277Z,9.70
2023-01-23T09:12:11.408Z,9.97
2023-01-23T09:14:38.617Z,9.90
2023-01-23T09:17:06.136Z,8.13
2023-01-23T09:19:33.430Z,8.33
2023-01-23T09:22:00.635Z,9.77
2023-01-23T09:24:27.801Z,10.10
2023-01-23T09:26:54.991Z,7.13
2023-01-23T09:29:22.118Z,7.40
2023-01-23T09:31:49.385Z,9.87
2023-01-23T09:34:17.385Z,9.77
2023-01-23T09:36:44.659Z,9.80
2023-01-23T09:39:12.363Z,9.13
2023-01-23T09:41:40.480Z,9.50
2023-01-23T09:44:10.789Z,9.57
2023-01-23T09:46:37.906Z,10.03
2023-01-23T09:49:05.015Z,9.73
2023-01-23T09:51:32.124Z,9.73
2023-01-23T09:54:02.378Z,10.10
2023-01-23T09:56:31.630Z,9.63
2023-01-23T09:59:04.367Z,8.60
2023-01-23T10:01:31.967Z,9.37
2023-01-23T10:04:00.630Z,8.70
2023-01-23T10:06:31.716Z,8.80
2023-01-23T10:09:07.946Z,8.20
2023-01-23T10:11:37.870Z,8.80
2023-01-23T10:14:17.493Z,7.67
2023-01-23T10:16:51.361Z,7.47
2023-01-23T10:19:27.611Z,7.80
2023-01-23T10:21:54.793Z,7.60
2023-01-23T10:24:40.913Z,8.20
2023-01-23T10:27:19.257Z,7.77
2023-01-23T10:29:50.576Z,8.87
2023-01-23T10:32:29.559Z,7.57
2023-01-23T10:35:16.934Z,7.80
2023-01-23T10:37:48.421Z,7.80
2023-01-23T10:40:17.627Z,7.80
2023-01-23T10:42:44.772Z,7.83
2023-01-23T10:45:16.638Z,8.30
2023-01-23T10:47:54.701Z,7.73
2023-01-23T10:50:34.716Z,7.90
2023-01-23T10:53:09.139Z,7.90
2023-01-23T10:55:36.278Z,8.00
2023-01-23T10:58:03.473Z,6.23
2023-01-23T11:00:38.819Z,8.37
2023-01-23T11:03:29.092Z,8.90
2023-01-23T11:05:57.470Z,8.37
2023-01-23T11:08:26.250Z,8.23
2023-01-23T11:10:53.700Z,8.93
2023-01-23T11:13:30.514Z,9.47
2023-01-23T11:15:58.157Z,9.27
2023-01-23T11:18:36.017Z,8.77
2023-01-23T11:21:03.347Z,8.73
2023-01-23T11:23:30.675Z,8.43
2023-01-23T11:25:58.156Z,8.90
2023-01-23T11:28:27.368Z,8.70
2023-01-23T11:31:11.596Z,8.70
2023-01-23T11:33:39.840Z,7.50
2023-01-23T11:36:19.512Z,7.57
2023-01-23T11:38:58.109Z,9.03
2023-01-23T11:41:35.614Z,8.53
2023-01-23T11:44:08.047Z,8.77
2023-01-23T11:46:47.420Z,8.70
2023-01-23T11:49:14.526Z,8.50
2023-01-23T11:51:50.386Z,8.57
2023-01-23T11:54:17.609Z,9.43
2023-01-23T11:56:44.790Z,9.47
2023-01-23T11:59:30.340Z,10.50
2023-01-23T12:02:16.316Z,8.97
2023-01-23T12:05:08.536Z,8.33
2023-01-23T12:07:56.015Z,9.30
2023-01-23T12:10:49.086Z,9.83
2023-01-23T12:13:24.870Z,10.20
2023-01-23T12:16:01.096Z,9.70
2023-01-23T12:18:46.811Z,10.20
2023-01-23T12:21:17.029Z,8.17
2023-01-23T12:23:58.298Z,8.00
2023-01-23T12:26:27.789Z,9.37
2023-01-23T12:28:57.947Z,17.37
2023-01-23T12:31:41.026Z,9.90
2023-01-23T12:34:28.419Z,8.70
2023-01-23T12:37:08.711Z,8.43
2023-01-23T12:39:58.243Z,7.53
2023-01-23T12:42:41.663Z,7.33
2023-01-23T12:45:11.852Z,9.73
2023-01-23T12:47:45.335Z,7.20
2023-01-23T12:50:17.669Z,8.80
2023-01-23T12:52:50.635Z,7.37
2023-01-23T12:55:17.766Z,11.47
2023-01-23T12:58:00.203Z,8.27
2023-01-23T13:00:53.434Z,8.37
2023-01-23T13:03:31.314Z,7.27
2023-01-23T13:06:09.400Z,7.97
2023-01-23T13:09:05.351Z,7.47
2023-01-23T13:11:52.609Z,8.17
2023-01-23T13:14:31.470Z,8.13
2023-01-23T13:17:04.831Z,7.50
2023-01-23T13:19:52.220Z,7.27
2023-01-23T13:22:27.728Z,7.90
2023-01-23T13:25:17.670Z,8.50
2023-01-23T13:28:01.933Z,7.70
2023-01-23T13:30:32.916Z,8.50
2023-01-23T13:33:01.704Z,7.97
2023-01-23T13:35:44.755Z,8.33
2023-01-23T13:38:30.353Z,8.33
2023-01-23T13:41:12.022Z,9.07
2023-01-23T13:43:44.291Z,8.63
2023-01-23T13:46:30.084Z,8.13
2023-01-23T14:21:41.513Z,6.13
2023-01-23T14:24:25.118Z,6.73
2023-01-23T14:26:53.705Z,5.63
2023-01-23T14:29:24.982Z,5.80
2023-01-23T14:31:52.803Z,5.67
2023-01-23T14:34:21.443Z,5.70
2023-01-23T14:37:09.081Z,5.47
2023-01-23T14:39:37.027Z,5.27
2023-01-23T14:42:06.532Z,5.20
2023-01-23T14:44:42.840Z,4.70
2023-01-23T14:47:23.765Z,5.67
2023-01-23T14:49:51.017Z,5.13
2023-01-23T14:52:26.063Z,4.97
2023-01-23T14:54:54.835Z,5.00
2023-01-23T14:57:24.572Z,5.10
2023-01-23T14:59:53.893Z,4.97
2023-01-23T15:02:36.587Z,4.70
2023-01-23T15:05:07.933Z,6.10
2023-01-23T15:07:35.579Z,5.53
2023-01-23T15:10:03.099Z,5.93
2023-01-23T15:12:30.234Z,5.27
2023-01-23T15:14:57.493Z,6.03
2023-01-23T15:17:24.694Z,6.07
2023-01-23T15:19:56.585Z,5.77
2023-01-23T15:22:28.355Z,6.60
2023-01-23T15:24:55.994Z,6.20
2023-01-23T15:27:24.839Z,6.10
2023-01-23T15:29:52.439Z,6.53
2023-01-23T15:32:24.415Z,6.30
2023-01-23T15:34:55.721Z,6.63
2023-01-23T15:37:24.420Z,6.87
2023-01-23T15:39:53.876Z,7.67
2023-01-23T15:42:21.078Z,7.17
2023-01-23T15:44:48.246Z,6.80
2023-01-23T15:47:15.367Z,6.53
2023-01-23T15:49:42.521Z,7.33
2023-01-23T15:52:20.410Z,6.33
2023-01-23T15:54:47.739Z,6.73
2023-01-23T15:57:15.229Z,7.37
2023-01-23T15:59:42.376Z,6.60
2023-01-23T16:02:29.115Z,7.10
2023-01-23T16:04:57.546Z,7.10
2023-01-23T16:07:25.675Z,7.17
2023-01-23T16:09:55.029Z,7.70
2023-01-23T16:12:23.390Z,7.60
2023-01-23T16:14:50.536Z,7.37
2023-01-23T16:17:17.665Z,7.80
2023-01-23T16:19:44.936Z,8.03
2023-01-23T16:22:17.704Z,8.03
2023-01-23T16:24:44.894Z,8.43
2023-01-23T16:27:16.942Z,8.67
2023-01-23T16:29:44.419Z,8.43
2023-01-23T16:32:11.723Z,8.30
2023-01-23T16:34:39.007Z,10.00
2023-01-23T16:37:06.536Z,9.00
2023-01-23T16:39:34.183Z,9.13
2023-01-23T16:42:01.520Z,10.77
2023-01-23T16:44:29.065Z,10.67
2023-01-23T16:46:56.260Z,10.67
2023-01-23T16:49:23.496Z,10.00
2023-01-23T16:52:01.049Z,9.80
2023-01-23T16:54:28.376Z,9.57
2023-01-23T16:56:56.992Z,9.50
2023-01-23T16:59:34.144Z,9.87
2023-01-23T17:02:02.159Z,9.93
2023-01-23T17:04:29.364Z,9.30
2023-01-23T17:06:56.512Z,10.33
2023-01-23T17:09:23.676Z,9.70
2023-01-23T17:11:56.210Z,10.57
2023-01-23T17:14:25.537Z,10.70
2023-01-23T17:16:52.999Z,10.30
2023-01-23T17:19:27.532Z,10.67
2023-01-23T17:21:54.793Z,10.33
2023-01-23T17:24:21.934Z,9.37
2023-01-23T17:26:49.076Z,9.13
2023-01-23T17:29:16.335Z,9.93
2023-01-23T17:31:43.939Z,10.77
2023-01-23T17:34:18.148Z,8.27
2023-01-23T17:36:45.474Z,9.10
2023-01-23T17:39:12.669Z,9.80
2023-01-23T17:41:39.799Z,10.90
2023-01-23T17:44:07.005Z,10.77
2023-01-23T17:46:39.530Z,10.23
2023-01-23T17:49:36.067Z,10.10
2023-01-23T17:52:03.285Z,11.27
2023-01-23T17:54:30.503Z,11.10
2023-01-23T17:56:57.686Z,11.10
2023-01-23T17:59:24.859Z,10.33
2023-01-23T18:01:52.163Z,10.40
2023-01-23T18:04:20.306Z,10.77
2023-01-23T18:06:47.960Z,10.07
2023-01-23T18:09:15.636Z,10.77
2023-01-23T18:11:52.559Z,9.40
2023-01-23T18:14:19.778Z,9.83
2023-01-23T18:16:48.145Z,9.30
2023-01-23T18:19:15.404Z,9.27
2023-01-23T18:21:42.730Z,9.70
2023-01-23T18:24:30.383Z,8.97
2023-01-23T18:26:58.865Z,8.83
2023-01-23T18:29:31.841Z,9.53
2023-01-23T18:31:58.940Z,9.53
2023-01-23T18:34:29.105Z,8.03
2023-01-23T18:36:56.231Z,7.87
2023-01-23T18:39:32.980Z,8.53
2023-01-23T18:42:03.155Z,8.23
2023-01-23T18:44:33.843Z,8.40
2023-01-23T18:47:05.583Z,8.07
2023-01-23T18:49:33.592Z,7.97
2023-01-23T18:52:05.275Z,6.37
2023-01-23T18:54:58.735Z,7.90
2023-01-23T18:57:37.955Z,8.97
2023-01-23T19:00:14.868Z,8.60
2023-01-23T19:02:47.016Z,8.47
2023-01-23T19:05:14.160Z,9.10
2023-01-23T19:07:41.337Z,8.47
2023-01-23T19:10:13.651Z,9.07
2023-01-23T19:12:45.982Z,9.57
2023-01-23T19:15:22.713Z,9.30
2023-01-23T19:17:50.075Z,9.97
2023-01-23T19:20:22.995Z,8.30
2023-01-23T19:22:55.508Z,10.17
2023-01-23T19:25:23.143Z,10.30
2023-01-23T19:27:52.922Z,9.33
2023-01-23T19:30:22.353Z,9.07
2023-01-23T19:32:50.347Z,9.40
2023-01-23T19:35:17.793Z,5.77
2023-01-23T19:37:45.324Z,9.50
2023-01-23T19:40:13.981Z,8.00
2023-01-23T19:42:52.414Z,8.93
2023-01-23T19:45:23.664Z,9.73
2023-01-23T19:47:53.262Z,8.70
2023-01-23T19:50:20.990Z,8.93
2023-01-23T19:52:49.133Z,9.80
2023-01-23T19:55:25.290Z,6.83
2023-01-23T19:57:52.938Z,10.27
2023-01-23T20:00:20.907Z,10.47
2023-01-23T20:02:48.376Z,9.23
2023-01-23T20:05:15.714Z,9.00
2023-01-23T20:07:43.047Z,9.00
2023-01-23T20:10:10.956Z,9.27
2023-01-23T20:12:41.997Z,8.87
2023-01-23T20:15:09.884Z,9.20
2023-01-23T20:17:37.193Z,9.20
2023-01-23T20:20:05.678Z,9.20
2023-01-23T20:22:32.916Z,9.20
2023-01-23T20:25:00.033Z,8.77
2023-01-23T20:27:27.202Z,8.30
2023-01-23T20:29:54.357Z,9.57
2023-01-23T20:32:21.538Z,8.43
2023-01-23T20:34:48.662Z,8.90
2023-01-23T20:37:15.885Z,9.20
2023-01-23T20:39:43.068Z,8.33
2023-01-23T20:42:11.279Z,7.57
2023-01-23T20:44:38.609Z,9.30
2023-01-23T20:47:05.794Z,9.30
2023-01-23T20:49:32.991Z,9.33
2023-01-23T20:52:20.099Z,9.90
2023-01-23T20:54:47.475Z,8.70
2023-01-23T20:57:14.802Z,9.70
2023-01-23T20:59:41.909Z,8.80
2023-01-23T21:02:23.389Z,9.30
2023-01-23T21:04:51.371Z,10.70
2023-01-23T21:07:18.599Z,9.93
2023-01-23T21:09:46.055Z,10.00
2023-01-23T21:12:13.380Z,9.33
2023-01-23T21:14:40.552Z,9.30
2023-01-23T21:17:08.982Z,9.30
2023-01-23T21:19:37.602Z,8.53
2023-01-23T21:22:06.075Z,8.90
2023-01-23T21:24:34.552Z,9.20
2023-01-23T21:27:05.432Z,9.00
2023-01-23T21:29:33.385Z,8.50
2023-01-23T21:32:00.721Z,8.73
2023-01-23T21:34:27.911Z,9.47
2023-01-23T21:36:55.191Z,10.33
2023-01-23T21:39:22.515Z,9.40
2023-01-23T21:41:49.642Z,9.23
2023-01-23T21:44:17.123Z,9.33
2023-01-23T21:46:46.578Z,8.70
2023-01-23T21:49:13.756Z,9.07
2023-01-23T21:51:40.961Z,10.07
2023-01-23T21:54:08.107Z,11.47
2023-01-23T21:56:35.268Z,10.30
2023-01-23T21:59:02.499Z,9.43
2023-01-23T22:01:33.304Z,9.77
2023-01-23T22:04:09.190Z,9.17
2023-01-23T22:06:37.138Z,9.17
2023-01-23T22:09:04.960Z,8.80
2023-01-23T22:11:32.301Z,9.43
2023-01-23T22:13:59.753Z,8.77
2023-01-23T22:16:46.532Z,8.93
2023-01-23T22:19:24.578Z,8.57
2023-01-23T22:21:52.563Z,9.17
2023-01-23T22:24:19.832Z,9.53
2023-01-23T22:26:47.042Z,9.50
2023-01-23T22:29:15.040Z,9.27
2023-01-23T22:31:42.661Z,9.30
2023-01-23T22:34:09.907Z,8.57
2023-01-23T22:36:37.145Z,8.93
2023-01-23T22:39:04.541Z,9.10
2023-01-23T22:41:31.770Z,9.40
2023-01-23T22:44:01.940Z,9.37
2023-01-23T22:46:29.419Z,9.50
2023-01-23T22:48:56.610Z,8.10
2023-01-23T22:51:25.518Z,8.67
2023-01-23T22:53:53.541Z,9.00
2023-01-23T22:56:21.207Z,9.50
2023-01-23T22:58:48.863Z,9.13
2023-01-23T23:01:16.972Z,8.53
2023-01-23T23:03:44.230Z,8.90
2023-01-23T23:06:12.166Z,8.27
2023-01-23T23:08:39.342Z,9.47
2023-01-23T23:11:07.926Z,9.13
2023-01-23T23:13:35.865Z,9.33
2023-01-23T23:16:04.171Z,10.30
2023-01-23T23:18:31.296Z,10.17
2023-01-23T23:21:17.960Z,9.67
2023-01-23T23:23:45.133Z,9.57
2023-01-23T23:26:12.793Z,8.63
2023-01-23T23:28:40.528Z,9.33
2023-01-23T23:31:08.378Z,9.40
2023-01-23T23:33:36.148Z,4.90
2023-01-23T23:36:03.332Z,8.30
2023-01-23T23:38:30.492Z,5.33
2023-01-23T23:40:59.185Z,7.50
2023-01-23T23:43:26.386Z,7.40
2023-01-23T23:45:54.315Z,7.23
2023-01-23T23:48:22.027Z,8.43
2023-01-23T23:50:49.339Z,8.90
2023-01-23T23:53:16.810Z,9.20
2023-01-23T23:55:43.953Z,8.67
2023-01-23T23:58:11.160Z,8.10
